sensor_id;sensor_type;location;lat;lon;timestamp;pressure;altitude;pressure_sealevel;temperature;humidity
69593;BME280;56796;50.122;14.468;2023-02-12T00:09:16;995.89;;;4.73;94.42
69593;BME280;56796;50.122;14.468;2023-02-12T00:28:43;995.65;;;4.92;95.46
69593;BME280;56796;50.122;14.468;2023-02-12T00:48:09;995.99;;;4.92;96.04
69593;BME280;56796;50.122;14.468;2023-02-12T01:07:36;996.04;;;4.96;95.79
69593;BME280;56796;50.122;14.468;2023-02-12T01:27:01;996.06;;;5.1;96.15
69593;BME280;56796;50.122;14.468;2023-02-12T01:46:27;996.22;;;5.25;96.96
69593;BME280;56796;50.122;14.468;2023-02-12T02:05:55;996.22;;;5.13;96.88
69593;BME280;56796;50.122;14.468;2023-02-12T02:25:29;996.34;;;5.07;97.32
69593;BME280;56796;50.122;14.468;2023-02-12T02:44:41;996.36;;;5.06;97.41
69593;BME280;56796;50.122;14.468;2023-02-12T03:04:06;996.52;;;5.05;97.7
69593;BME280;56796;50.122;14.468;2023-02-12T03:23:31;996.64;;;5.08;97.98
69593;BME280;56796;50.122;14.468;2023-02-12T03:42:57;996.82;;;5.2;98.47
69593;BME280;56796;50.122;14.468;2023-02-12T04:21:46;997.11;;;5.24;99.21
69593;BME280;56796;50.122;14.468;2023-02-12T04:41:10;997.36;;;5.16;100
69593;BME280;56796;50.122;14.468;2023-02-12T05:00:35;997.44;;;5.12;100
69593;BME280;56796;50.122;14.468;2023-02-12T05:20:00;997.56;;;5.12;100
69593;BME280;56796;50.122;14.468;2023-02-12T05:39:26;997.79;;;4.98;100
69593;BME280;56796;50.122;14.468;2023-02-12T05:58:52;997.93;;;4.78;100
69593;BME280;56796;50.122;14.468;2023-02-12T06:18:16;998.17;;;4.63;100
69593;BME280;56796;50.122;14.468;2023-02-12T06:37:46;998.44;;;4.69;100
69593;BME280;56796;50.122;14.468;2023-02-12T06:57:03;998.44;;;4.96;100
69593;BME280;56796;50.122;14.468;2023-02-12T07:16:34;998.6;;;6.42;100
69593;BME280;56796;50.122;14.468;2023-02-12T07:35:58;998.83;;;7.77;95.03
69593;BME280;56796;50.122;14.468;2023-02-12T07:55:25;999.06;;;6.5;94.23
69593;BME280;56796;50.122;14.468;2023-02-12T08:14:48;999.21;;;5.92;96.77
69593;BME280;56796;50.122;14.468;2023-02-12T08:34:15;999.35;;;5.95;97.01
69593;BME280;56796;50.122;14.468;2023-02-12T08:53:39;999.4;;;6.18;97.25
69593;BME280;56796;50.122;14.468;2023-02-12T09:13:05;999.55;;;6.42;97.48
69593;BME280;56796;50.122;14.468;2023-02-12T09:32:31;999.86;;;6.72;96.64
69593;BME280;56796;50.122;14.468;2023-02-12T09:51:57;1000;;;6.82;96.27
69593;BME280;56796;50.122;14.468;2023-02-12T10:11:27;1000.05;;;7.09;95.84
69593;BME280;56796;50.122;14.468;2023-02-12T10:30:51;1000.05;;;7.22;94.56
69593;BME280;56796;50.122;14.468;2023-02-12T10:50:19;999.96;;;7.43;92.75
69593;BME280;56796;50.122;14.468;2023-02-12T11:09:44;999.89;;;7.98;90.39
69593;BME280;56796;50.122;14.468;2023-02-12T11:29:16;999.9;;;8.34;87.36
69593;BME280;56796;50.122;14.468;2023-02-12T11:48:41;999.85;;;9.22;83.15
69593;BME280;56796;50.122;14.468;2023-02-12T12:08:11;999.8;;;8.47;81.84
69593;BME280;56796;50.122;14.468;2023-02-12T12:27:33;999.76;;;8.39;82.42
69593;BME280;56796;50.122;14.468;2023-02-12T12:47:01;999.63;;;8.47;79.27
69593;BME280;56796;50.122;14.468;2023-02-12T13:06:28;999.59;;;8.37;77.74
69593;BME280;56796;50.122;14.468;2023-02-12T13:25:52;999.59;;;8.1;78.65
69593;BME280;56796;50.122;14.468;2023-02-12T13:45:17;999.64;;;8.17;79.47
69593;BME280;56796;50.122;14.468;2023-02-12T14:04:40;999.59;;;8.37;77.82
69593;BME280;56796;50.122;14.468;2023-02-12T14:43:33;999.6;;;8.25;78.64
69593;BME280;56796;50.122;14.468;2023-02-12T15:03:00;999.63;;;8.22;78.49
69593;BME280;56796;50.122;14.468;2023-02-12T15:22:28;999.68;;;7.82;79.57
69593;BME280;56796;50.122;14.468;2023-02-12T15:41:45;999.75;;;7.54;80.48
69593;BME280;56796;50.122;14.468;2023-02-12T16:01:12;999.72;;;7.36;81.59
69593;BME280;56796;50.122;14.468;2023-02-12T16:20:34;999.78;;;7.2;82.93
69593;BME280;56796;50.122;14.468;2023-02-12T16:59:26;999.87;;;6.95;85
69593;BME280;56796;50.122;14.468;2023-02-12T17:18:51;999.93;;;6.85;86.63
69593;BME280;56796;50.122;14.468;2023-02-12T17:38:20;999.93;;;6.83;88.09
69593;BME280;56796;50.122;14.468;2023-02-12T17:57:37;1000.04;;;6.77;88.95
69593;BME280;56796;50.122;14.468;2023-02-12T18:17:03;1000.2;;;6.71;89.54
69593;BME280;56796;50.122;14.468;2023-02-12T18:36:28;1000.25;;;6.71;90.27
69593;BME280;56796;50.122;14.468;2023-02-12T18:55:57;1000.2;;;6.62;90.77
69593;BME280;56796;50.122;14.468;2023-02-12T19:15:15;1000.28;;;6.48;91.35
69593;BME280;56796;50.122;14.468;2023-02-12T19:34:40;1000.21;;;6.47;91.9
69593;BME280;56796;50.122;14.468;2023-02-12T19:54:05;1000.29;;;6.45;92.14
69593;BME280;56796;50.122;14.468;2023-02-12T20:13:30;1000.18;;;6.45;92.08
69593;BME280;56796;50.122;14.468;2023-02-12T20:32:58;1000.32;;;6.4;92.56
69593;BME280;56796;50.122;14.468;2023-02-12T20:52:16;1000.48;;;6.32;93.04
69593;BME280;56796;50.122;14.468;2023-02-12T21:11:41;1000.37;;;6.38;93.85
69593;BME280;56796;50.122;14.468;2023-02-12T21:31:07;1000.21;;;6.42;93.94
69593;BME280;56796;50.122;14.468;2023-02-12T21:50:34;1000.35;;;6.54;93.62
69593;BME280;56796;50.122;14.468;2023-02-12T22:09:59;1000.43;;;6.44;93.74
69593;BME280;56796;50.122;14.468;2023-02-12T22:29:25;1000.39;;;6.28;94.12
69593;BME280;56796;50.122;14.468;2023-02-12T22:48:51;1000.59;;;6.19;94.62
69593;BME280;56796;50.122;14.468;2023-02-12T23:08:16;1000.58;;;6.12;95.43
69593;BME280;56796;50.122;14.468;2023-02-12T23:27:41;1000.46;;;5.9;96.92
69593;BME280;56796;50.122;14.468;2023-02-12T23:47:07;1000.3;;;5.78;98.54
